ADDS METAR Data INFO
IDs: Format: Raw Decoded Include TAF

Data at: 1631 UTC 22 Jul 2017

KRIW 221553Z AUTO 11005KT 10SM CLR 23/01 A3026 RMK AO2 SLP174 T02330011
KRIW 221453Z AUTO 00000KT 10SM CLR 23/M01 A3025 RMK AO2 SLP170 T02331011 51015
KRIW 221353Z AUTO 31007KT 10SM CLR 19/00 A3024 RMK AO2 SLP165 T01940000
KRIW 221253Z AUTO 32008KT 10SM CLR 16/01 A3022 RMK AO2 SLP162 T01560011
KRIW 221153Z AUTO 32011KT 10SM CLR 14/01 A3020 RMK AO2 SLP155 T01440006 10200 20139 53012
KRIW 221053Z AUTO 32012KT 10SM CLR 16/M01 A3018 RMK AO2 SLP147 T01561011
KRIW 220953Z AUTO 31013KT 10SM CLR 16/M01 A3017 RMK AO2 SLP142 T01611011
KRIW 220853Z AUTO 31013KT 10SM CLR 17/M01 A3016 RMK AO2 SLP139 T01721011 51009
KRIW 220753Z AUTO 32012KT 10SM CLR 19/M03 A3015 RMK AO2 SLP137 T01891033
KRIW 220653Z AUTO 28007KT 10SM CLR 18/M02 A3015 RMK AO2 SLP137 T01781017 403330150
KRIW 220553Z AUTO 31014KT 10SM CLR 19/M01 A3013 RMK AO2 SLP134 T01891006 10328 20189 51012
KRIW 220453Z AUTO 31013KT 10SM CLR 22/M04 A3011 RMK AO2 SLP123 T02221039
KRIW 220353Z AUTO 29012KT 10SM CLR 24/M03 A3010 RMK AO2 SLP123 T02391028
KRIW 220253Z AUTO 30011KT 10SM CLR 25/M02 A3008 RMK AO2 SLP119 T02501022 53010
KRIW 220153Z AUTO 30010KT 10SM CLR 29/M01 A3007 RMK AO2 SLP111 T02891011
KRIW 220053Z AUTO 31013G21KT 10SM CLR 31/M03 A3005 RMK AO2 SLP101 T03111033
KRIW 212353Z AUTO 31018G25KT 10SM CLR 32/M03 A3005 RMK AO2 SLP099 T03221033 10333 20244 57014
KRIW 212253Z AUTO 31007KT 250V350 10SM CLR 31/03 A3007 RMK AO2 SLP106 T03110028
KRIW 212153Z AUTO 24008KT 10SM CLR 32/04 A3008 RMK AO2 SLP113 T03170044
KRIW 212053Z AUTO 12005KT 10SM CLR 30/05 A3010 RMK AO2 SLP120 T03000050 58016
KRIW 211953Z AUTO VRB05KT 10SM CLR 29/03 A3012 RMK AO2 SLP129 T02890028
KRIW 211853Z AUTO 09006KT 10SM CLR 27/10 A3014 RMK AO2 SLP137 T02720100
KRIW 211753Z AUTO 12008KT 10SM CLR 24/12 A3015 RMK AO2 SLP143 60000 T02440117 10250 20156 55003
KRIW 211653Z AUTO 04007KT 10SM CLR 25/09 A3015 RMK AO2 SLP143 T02500094
KRIW 211553Z AUTO 32006KT 10SM CLR 21/11 A3015 RMK AO2 SLP150 T02060111
KRIW 211453Z AUTO 33005KT 10SM FEW110 18/13 A3016 RMK AO2 SLP156 60000 T01830128 53015
KRIW 211353Z AUTO 30006KT 10SM CLR 17/14 A3014 RMK AO2 RAB01E10 SLP148 P0000 T01670139
KRIW 211253Z AUTO 24008KT 10SM FEW060 FEW090 SCT110 17/14 A3013 RMK AO2 RAB34E43 SLP141 P0000 T01670139
KRIW 211153Z AUTO 30004KT 10SM BKN110 16/13 A3011 RMK AO2 SLP133 70007 T01610133 10189 20150 52003
KRIW 211053Z AUTO 35003KT 10SM CLR 16/13 A3011 RMK AO2 SLP120 T01610133
KRIW 210953Z AUTO 33006KT 10SM CLR 15/14 A3010 RMK AO2 SLP117 T01500139
KRIW 210853Z AUTO 35003KT 10SM CLR 16/15 A3010 RMK AO2 SLP117 T01560150 56004
KRIW 210753Z AUTO 08005KT 10SM CLR 16/14 A3011 RMK AO2 SLP121 T01610144
KRIW 210653Z AUTO 28006KT 10SM CLR 17/14 A3010 RMK AO2 SLP120 T01720139 403500167
KRIW 210553Z AUTO 24008KT 10SM CLR 18/14 A3011 RMK AO2 SLP125 60007 T01830139 10244 20167 56005
KRIW 210453Z AUTO 28004KT 10SM CLR 17/15 A3011 RMK AO2 SLP129 T01720150